Time;durP1;ratioP1;P1;durP2;ratioP2;P2;SDS_P1;SDS_P2;PMS_P1;PMS_P2;Temp;Humidity;BMP_temperature;BMP_pressure;BME280_temperature;BME280_humidity;BME280_pressure;Samples;Min_cycle;Max_cycle;Signal;HPM_P1;HPM_P2
2024/01/01 05:21:00;;;;;;;0.10;0.10;;;;;;;;;;6238472;22;20302;-91
2024/01/01 05:23:52;;;;;;;0.10;0.10;;;;;;;;;;6240738;23;20008;-91
2024/01/01 05:26:33;;;;;;;1.65;1.55;;;;;;;;;;6237687;23;20024;-90
2024/01/01 05:29:20;;;;;;;0.45;0.45;;;;;;;;;;6256759;23;20028;-91
2024/01/01 05:32:23;;;;;;;0.10;0.10;;;;;;;;;;6238431;23;20028;-91
2024/01/01 05:35:13;;;;;;;0.35;0.35;;;;;;;;;;6237474;23;20050;-89
2024/01/01 05:37:58;;;;;;;0.80;0.75;;;;;;;;;;6233419;23;20028;-91
2024/01/01 05:40:44;;;;;;;2.67;0.77;;;;;;;;;;6221030;23;20019;-90
2024/01/01 05:43:35;;;;;;;0.10;0.10;;;;;;;;;;6240671;23;20071;-90
2024/01/01 05:46:10;;;;;;;0.98;0.73;;;;;;;;;;6267884;23;20100;-90
2024/01/01 05:48:58;;;;;;;1.48;1.38;;;;;;;;;;6244041;23;20055;-91
2024/01/01 05:51:47;;;;;;;0.10;0.10;;;;;;;;;;6267358;23;20068;-91
2024/01/01 05:54:37;;;;;;;0.13;0.13;;;;;;;;;;6244140;23;20020;-91
2024/01/01 05:57:41;;;;;;;1.00;0.93;;;;;;;;;;6247420;23;20024;-90
2024/01/01 06:00:25;;;;;;;0.30;0.30;;;;;;;;;;6265597;23;20016;-91
2024/01/01 06:03:11;;;;;;;0.10;0.10;;;;;;;;;;6241016;23;20059;-92
2024/01/01 06:05:41;;;;;;;6.40;0.55;;;;;;;;;;6239648;23;20110;-91
2024/01/01 06:08:23;;;;;;;0.20;0.20;;;;;;;;;;6240249;23;20012;-90
2024/01/01 06:10:59;;;;;;;0.20;0.20;;;;;;;;;;6239948;23;20120;-90
2024/01/01 06:13:37;;;;;;;1.95;1.10;;;;;;;;;;6241788;23;20012;-91
2024/01/01 06:16:28;;;;;;;0.10;0.10;;;;;;;;;;6247991;22;20034;-93
2024/01/01 06:19:12;;;;;;;0.68;0.50;;;;;;;;;;6242012;23;20024;-92
2024/01/01 06:22:01;;;;;;;0.10;0.10;;;;;;;;;;6241344;23;20008;-92
2024/01/01 06:24:43;;;;;;;0.00;0.00;;;;;;;;;;6243839;23;20030;-91
2024/01/01 06:27:25;;;;;;;0.30;0.30;;;;;;;;;;6241420;23;20021;-92
2024/01/01 06:30:09;;;;;;;0.10;0.10;;;;;;;;;;6244115;23;20012;-92
2024/01/01 06:32:58;;;;;;;0.20;0.20;;;;;;;;;;6268672;23;20024;-92
2024/01/01 06:35:34;;;;;;;0.10;0.10;;;;;;;;;;6245283;23;20431;-91
2024/01/01 06:38:17;;;;;;;0.00;0.00;;;;;;;;;;6244331;22;20016;-91
2024/01/01 06:41:02;;;;;;;0.38;0.38;;;;;;;;;;6244255;22;20040;-92
2024/01/01 06:43:51;;;;;;;0.10;0.10;;;;;;;;;;6177705;23;20013;-91
2024/01/01 06:46:42;;;;;;;0.10;0.10;;;;;;;;;;6151608;23;20017;-92
2024/01/01 06:49:18;;;;;;;0.10;0.10;;;;;;;;;;6149340;23;20026;-91
2024/01/01 06:52:14;;;;;;;0.10;0.10;;;;;;;;;;6149136;23;20100;-91
2024/01/01 06:55:22;;;;;;;0.30;0.30;;;;;;;;;;6138951;23;20041;-93
2024/01/01 06:58:03;;;;;;;0.28;0.28;;;;;;;;;;6143703;23;20036;-91
2024/01/01 07:00:37;;;;;;;0.05;0.05;;;;;;;;;;6141673;23;20021;-92
2024/01/01 07:03:19;;;;;;;0.10;0.10;;;;;;;;;;6144772;23;20126;-92
2024/01/01 07:06:09;;;;;;;0.05;0.05;;;;;;;;;;6143686;23;20017;-91
2024/01/01 07:09:07;;;;;;;0.45;0.43;;;;;;;;;;6145475;23;20044;-93
2024/01/01 07:11:58;;;;;;;0.10;0.10;;;;;;;;;;6144544;23;20434;-92
2024/01/01 07:14:40;;;;;;;0.10;0.10;;;;;;;;;;6185162;23;20513;-93
2024/01/01 07:17:23;;;;;;;0.20;0.20;;;;;;;;;;6262628;23;20095;-94
2024/01/01 07:20:16;;;;;;;0.35;0.35;;;;;;;;;;6239779;23;20020;-93
2024/01/01 07:23:06;;;;;;;0.20;0.20;;;;;;;;;;6241672;22;20107;-90
2024/01/01 07:25:49;;;;;;;0.10;0.10;;;;;;;;;;6239197;23;20028;-92
2024/01/01 07:28:43;;;;;;;0.30;0.30;;;;;;;;;;6238318;23;20024;-93
2024/01/01 07:31:38;;;;;;;0.20;0.20;;;;;;;;;;6263582;22;20050;-94
2024/01/01 07:34:32;;;;;;;0.10;0.10;;;;;;;;;;6213797;23;20024;-92
2024/01/01 07:37:29;;;;;;;;;;;;;;;;;;;;;
2024/01/01 07:40:18;;;;;;;0.10;0.10;;;;;;;;;;6233825;23;20029;-93
2024/01/01 07:43:01;;;;;;;0.10;0.10;;;;;;;;;;6229656;23;20054;-93
2024/01/01 07:45:52;;;;;;;0.80;0.68;;;;;;;;;;6235371;23;20013;-93
2024/01/01 07:48:39;;;;;;;0.10;0.10;;;;;;;;;;6234788;23;20017;-92
2024/01/01 07:51:22;;;;;;;0.10;0.10;;;;;;;;;;6238409;23;20005;-93
2024/01/01 07:53:57;;;;;;;0.10;0.10;;;;;;;;;;6234943;23;20028;-93
2024/01/01 07:56:43;;;;;;;9.50;8.10;;;;;;;;;;6237376;23;20012;-92
2024/01/01 07:59:26;;;;;;;0.10;0.10;;;;;;;;;;6238549;23;20048;-93
2024/01/01 08:02:11;;;;;;;;;;;;;;;;;;;;;
2024/01/01 08:04:46;;;;;;;0.00;0.00;;;;;;;;;;6236715;23;20012;-92
2024/01/01 08:07:18;;;;;;;0.52;0.52;;;;;;;;;;6237323;23;20032;-93
2024/01/01 08:10:14;;;;;;;0.30;0.30;;;;;;;;;;6237683;23;20052;-92
2024/01/01 08:14:25;;;;;;;0.10;0.10;;;;;;;;;;5130948;27;20136;-92
2024/01/01 08:17:11;;;;;;;0.03;0.03;;;;;;;;;;5114245;28;20139;-93
2024/01/01 08:23:24;;;;;;;0.20;0.20;;;;;;;;;;5091253;28;20062;-92
2024/01/01 08:26:12;;;;;;;0.10;0.10;;;;;;;;;;5130455;28;20112;-93
2024/01/01 08:28:51;;;;;;;0.10;0.10;;;;;;;;;;5608135;22;20272;-91
2024/01/01 08:31:39;;;;;;;0.10;0.10;;;;;;;;;;5071981;28;20144;-93
2024/01/01 08:34:28;;;;;;;0.20;0.20;;;;;;;;;;5087440;28;20140;-92
2024/01/01 08:37:33;;;;;;;;;;;;;;;;;;;;;
2024/01/01 08:40:08;;;;;;;0.00;0.00;;;;;;;;;;5074270;28;20160;-93
2024/01/01 08:42:53;;;;;;;0.10;0.10;;;;;;;;;;5086139;28;20053;-91
2024/01/01 08:45:30;;;;;;;0.10;0.10;;;;;;;;;;5089310;28;20036;-92
2024/01/01 08:48:16;;;;;;;0.30;0.30;;;;;;;;;;5072866;28;20072;-94
2024/01/01 08:51:07;;;;;;;0.95;0.55;;;;;;;;;;5087762;28;20063;-92
2024/01/01 08:53:51;;;;;;;0.20;0.20;;;;;;;;;;5088575;28;20091;-92
2024/01/01 08:56:22;;;;;;;0.10;0.10;;;;;;;;;;5088144;28;20052;-92
2024/01/01 08:59:00;;;;;;;0.57;0.57;;;;;;;;;;5088022;28;20231;-91
2024/01/01 09:01:44;;;;;;;0.10;0.10;;;;;;;;;;5088474;28;20324;-90
2024/01/01 09:23:09;;;;;;;0.10;0.10;;;;;;;;;;5094920;22;20044;-89
2024/01/01 10:45:47;;;;;;;1.08;0.20;;;;;;;;;;1474511;26;20109;-92
2024/01/01 10:49:03;;;;;;;0.10;0.10;;;;;;;;;;5013784;28;20068;-92
2024/01/01 10:52:08;;;;;;;0.40;0.40;;;;;;;;;;4952469;28;20072;-92
2024/01/01 10:55:15;;;;;;;0.10;0.10;;;;;;;;;;5031022;28;20046;-91
2024/01/01 10:58:26;;;;;;;0.28;0.28;;;;;;;;;;4928929;29;20039;-91
2024/01/01 11:01:16;;;;;;;0.10;0.10;;;;;;;;;;4918372;29;20058;-92
2024/01/01 11:04:10;;;;;;;0.00;0.00;;;;;;;;;;4932485;29;20056;-91
2024/01/01 11:07:20;;;;;;;1.55;0.20;;;;;;;;;;4919808;29;20040;-92
2024/01/01 13:25:48;;;;;;;;;;;;;;;;;;;;;
2024/01/01 13:28:37;;;;;;;0.10;0.10;;;;;;;;;;4969730;29;20089;-90
2024/01/01 13:34:14;;;;;;;0.10;0.10;;;;;;;;;;5008630;28;20050;-90
2024/01/01 13:45:21;;;;;;;0.10;0.10;;;;;;;;;;5212404;23;20058;-89
2024/01/01 14:03:54;;;;;;;0.10;0.10;;;;;;;;;;4952243;28;20055;-89
2024/01/01 14:12:33;;;;;;;0.10;0.10;;;;;;;;;;5425132;23;20058;-89
2024/01/01 14:15:28;;;;;;;0.00;0.00;;;;;;;;;;5049640;23;20055;-89
2024/01/01 14:18:49;;;;;;;1.02;0.98;;;;;;;;;;4906153;29;20074;-89
2024/01/01 14:22:09;;;;;;;0.00;0.00;;;;;;;;;;4938981;28;20047;-89
2024/01/01 14:25:37;;;;;;;0.10;0.10;;;;;;;;;;4973386;29;20050;-90
2024/01/01 14:28:22;;;;;;;0.10;0.10;;;;;;;;;;4948875;29;20078;-88
2024/01/01 14:31:05;;;;;;;0.10;0.10;;;;;;;;;;4973496;29;20596;-88
2024/01/01 14:51:32;;;;;;;0.10;0.10;;;;;;;;;;5003770;28;20073;-89
2024/01/01 14:54:45;;;;;;;0.10;0.10;;;;;;;;;;5004247;28;20046;-89
2024/01/01 15:00:29;;;;;;;0.10;0.10;;;;;;;;;;5175818;23;20046;-90
2024/01/01 15:14:47;;;;;;;0.17;0.17;;;;;;;;;;837457;23;20299;31
2024/01/01 15:20:15;;;;;;;1.38;0.17;;;;;;;;;;5129859;23;20035;-90
2024/01/01 15:55:58;;;;;;;1.13;0.50;;;;;;;;;;5184974;23;20237;-90
2024/01/01 15:59:02;;;;;;;0.13;0.13;;;;;;;;;;4971600;28;20055;-90
2024/01/01 20:46:41;;;;;;;0.10;0.10;;;;;;;;;;4976558;28;20076;-90
2024/01/01 21:17:55;;;;;;;0.20;0.20;;;;;;;;;;4946320;29;20087;-89
2024/01/01 21:20:44;;;;;;;0.20;0.20;;;;;;;;;;4934807;29;20052;-89
2024/01/01 21:23:31;;;;;;;0.10;0.10;;;;;;;;;;4937904;29;20059;-90
2024/01/01 21:26:15;;;;;;;0.20;0.20;;;;;;;;;;4936644;29;20115;-90
2024/01/01 21:32:48;;;;;;;0.38;0.38;;;;;;;;;;4945952;29;20056;-90
2024/01/01 21:49:22;;;;;;;0.10;0.10;;;;;;;;;;4963354;28;20055;-90
2024/01/01 21:52:10;;;;;;;0.20;0.20;;;;;;;;;;4956755;29;20043;-89
2024/01/01 21:54:53;;;;;;;0.20;0.20;;;;;;;;;;4954430;29;20051;-91
2024/01/01 21:57:43;;;;;;;0.10;0.10;;;;;;;;;;4962674;29;20102;-90
2024/01/01 22:00:24;;;;;;;0.10;0.10;;;;;;;;;;4947468;29;20426;-90
2024/01/01 22:03:21;;;;;;;0.20;0.20;;;;;;;;;;4959663;29;20117;-90
2024/01/01 22:06:02;;;;;;;0.10;0.10;;;;;;;;;;4954424;29;20043;-90
2024/01/01 22:08:37;;;;;;;0.20;0.20;;;;;;;;;;4958666;29;20067;-91
2024/01/01 22:12:18;;;;;;;0.10;0.10;;;;;;;;;;4973184;28;20127;-90
2024/01/01 22:14:44;;;;;;;0.10;0.10;;;;;;;;;;4973422;29;20074;-90
2024/01/01 22:17:26;;;;;;;0.20;0.20;;;;;;;;;;4957582;29;20035;-91
2024/01/01 22:20:18;;;;;;;0.10;0.10;;;;;;;;;;4961949;29;20073;-91
2024/01/01 22:23:17;;;;;;;;;;;;;;;;;;;;;
2024/01/01 22:26:23;;;;;;;0.20;0.20;;;;;;;;;;4965604;28;20065;-90
2024/01/01 22:29:19;;;;;;;0.10;0.10;;;;;;;;;;4958849;29;20098;-90
2024/01/01 22:32:10;;;;;;;;;;;;;;;;;;;;;
2024/01/01 22:34:56;;;;;;;0.10;0.10;;;;;;;;;;4961770;29;20055;-89
2024/01/01 22:38:01;;;;;;;0.20;0.20;;;;;;;;;;4961658;29;20043;-90
2024/01/01 22:40:48;;;;;;;0.10;0.10;;;;;;;;;;4960374;29;20050;-90
2024/01/01 22:43:58;;;;;;;0.20;0.20;;;;;;;;;;4955347;29;20031;-90
2024/01/01 22:53:03;;;;;;;0.10;0.10;;;;;;;;;;5247233;23;20043;-91
2024/01/01 22:59:06;;;;;;;0.10;0.10;;;;;;;;;;5235946;23;20066;-89
2024/01/01 23:05:38;;;;;;;0.10;0.10;;;;;;;;;;4984897;28;20458;-90
2024/01/01 23:08:36;;;;;;;0.00;0.00;;;;;;;;;;4984978;28;20056;-90
2024/01/01 23:11:27;;;;;;;0.20;0.20;;;;;;;;;;4993962;28;20046;-90
2024/01/01 23:14:20;;;;;;;0.10;0.10;;;;;;;;;;4963960;28;20453;-90
